Weather observations for the past three days for
Phoenix, Phoenix-Deer Valley Municipal Airport
| Date | Time (mst) | Wind (mph) | Vis. (mi.) | Weather | Sky Cond. | Temperature (ºF) | Relative Humidity | Wind Chill (°F) | Heat Index (°F) | Pressure | Precipitation (in) | ||||||
|---|---|---|---|---|---|---|---|---|---|---|---|---|---|---|---|---|---|
| Air | Dwpt | 6 hour | altimeter (in) | sea level (mb) | 1 hr | 3 hr | 6 hr | ||||||||||
| Max. | Min. | ||||||||||||||||
| 09 | 09:53 | SW 5 | 10.00 | Fair | CLR | 87.1 | 30.9 | 13% | 83 | 29.88 | 1009.1 | ||||||
| 09 | 08:53 | Vrbl 3 | 10.00 | Fair | CLR | 84 | 32 | 15% | 81 | 29.88 | 1009.1 | ||||||
| 09 | 07:53 | SE 5 | 10.00 | Fair | CLR | 81 | 32 | 17% | 79 | 29.87 | 1008.7 | ||||||
| 09 | 06:53 | E 6 | 10.00 | Fair | CLR | 75 | 32 | 21% | 76 | 29.86 | 1008.4 | ||||||
| 09 | 05:53 | Calm | 10.00 | Fair | CLR | 69.1 | 30 | 23% | 29.84 | 1008.0 | |||||||
| 09 | 04:53 | SE 5 | 10.00 | Fair | CLR | 68 | 30 | 82.9 | 66.9 | 24% | 29.82 | 1007.2 | |||||
| 09 | 03:53 | SE 5 | 10.00 | Fair | CLR | 69.1 | 30.9 | 24% | 29.81 | 1006.8 | |||||||
| 09 | 02:53 | Calm | 10.00 | Fair | CLR | 70 | 30.9 | 23% | 29.81 | 1006.8 | |||||||
| 09 | 01:53 | SE 6 | 10.00 | Fair | CLR | 72 | 30.9 | 22% | 29.8 | 1006.8 | |||||||
| 09 | 00:53 | Calm | 10.00 | Fair | CLR | 75.9 | 32 | 20% | 76 | 29.8 | 1006.7 | ||||||
| 08 | 23:53 | Calm | 10.00 | Fair | CLR | 78.1 | 32 | 19% | 77 | 29.81 | 1006.8 | ||||||
| 08 | 22:53 | Calm | 10.00 | Fair | CLR | 82 | 32 | 100 | 82 | 16% | 80 | 29.8 | 1006.6 | ||||
| 08 | 21:53 | W 6 | 10.00 | Fair | CLR | 87.1 | 30.9 | 13% | 83 | 29.79 | 1006.4 | ||||||
| 08 | 20:53 | SW 5 | 10.00 | Fair | CLR | 89.1 | 28 | 11% | 85 | 29.77 | 1005.7 | ||||||
| 08 | 19:53 | W 10 | 10.00 | Fair | CLR | 93.9 | 26.1 | 9% | 89 | 29.75 | 1004.9 | ||||||
| 08 | 18:53 | SW 12 | 10.00 | Fair | CLR | 96.1 | 28.9 | 9% | 91 | 29.73 | 1004.3 | ||||||
| 08 | 17:53 | W 12 G 22 | 10.00 | Fair | CLR | 98.1 | 28 | 8% | 93 | 29.74 | 1004.4 | ||||||
| 08 | 16:53 | W 12 G 23 | 10.00 | Fair | CLR | 100 | 30 | 100 | 86 | 8% | 95 | 29.75 | 1004.7 | ||||
| 08 | 15:53 | NW 13 | 10.00 | Fair | CLR | 99 | 30.9 | 9% | 94 | 29.77 | 1005.5 | ||||||
| 08 | 14:53 | W 15 G 25 | 10.00 | Fair | CLR | 96.1 | 34 | 11% | 91 | 29.81 | 1006.9 | ||||||
| 08 | 13:53 | SW 9 G 20 | 10.00 | Fair | CLR | 93.9 | 33.1 | 12% | 89 | 29.84 | 1008.0 | ||||||
| 08 | 12:53 | S 5 | 10.00 | Fair | CLR | 91 | 34 | 13% | 87 | 29.86 | 1008.8 | ||||||
| 08 | 11:53 | Calm | 10.00 | Fair | CLR | 88 | 34 | 15% | 84 | 29.88 | 1009.7 | ||||||
| 08 | 10:53 | Vrbl 3 | 10.00 | Fair | CLR | 86 | 32 | 86 | 70 | 14% | 83 | 29.9 | 1010.3 | ||||
| 08 | 09:53 | S 8 | 10.00 | Fair | CLR | 82.9 | 34 | 17% | 80 | 29.92 | 1010.7 | ||||||
| 08 | 08:53 | SE 8 | 10.00 | Fair | CLR | 81 | 36 | 20% | 79 | 29.92 | 1010.8 | ||||||
| 08 | 07:53 | SE 9 | 10.00 | Fair | CLR | 78.1 | 35.1 | 21% | 78 | 29.92 | 1010.7 | ||||||
| 08 | 06:53 | E 3 | 10.00 | Fair | CLR | 73 | 35.1 | 25% | 29.91 | 1010.6 | |||||||
| 08 | 05:53 | E 7 | 10.00 | Fair | CLR | 70 | 35.1 | 28% | 29.89 | 1009.8 | |||||||
| 08 | 04:53 | E 8 | 10.00 | Fair | CLR | 71.1 | 35.1 | 75 | 68 | 27% | 29.87 | 1009.2 | |||||
| 08 | 03:53 | SE 10 | 10.00 | Fair | CLR | 72 | 32 | 23% | 29.86 | 1008.8 | |||||||
| 08 | 02:53 | SE 6 | 10.00 | Fair | CLR | 72 | 27 | 19% | 29.86 | 1008.6 | |||||||
| 08 | 01:53 | Calm | 10.00 | Fair | CLR | 70 | 25 | 18% | 29.85 | 1008.6 | |||||||
| 08 | 00:53 | Calm | 10.00 | Fair | CLR | 72 | 24.1 | 17% | 29.86 | 1008.7 | |||||||
| 07 | 23:53 | Calm | 10.00 | Fair | CLR | 70 | 23 | 17% | 29.86 | 1008.8 | |||||||
| 07 | 22:53 | Calm | 10.00 | Fair | CLR | 75 | 21.9 | 93 | 75 | 14% | 75 | 29.85 | 1008.6 | ||||
| 07 | 21:53 | Calm | 10.00 | Fair | CLR | 79 | 23 | 12% | 78 | 29.85 | 1008.4 | ||||||
| 07 | 20:53 | W 3 | 10.00 | Fair | CLR | 84 | 21.9 | 10% | 81 | 29.84 | 1007.9 | ||||||
| 07 | 19:53 | SW 8 | 10.00 | Fair | CLR | 87.1 | 21.9 | 9% | 84 | 29.81 | 1007.1 | ||||||
| 07 | 18:53 | SW 12 | 10.00 | Fair | CLR | 90 | 23 | 9% | 86 | 29.79 | 1006.5 | ||||||
| 07 | 17:53 | SW 13 | 10.00 | Fair | CLR | 91.9 | 21.9 | 8% | 88 | 29.78 | 1006.3 | ||||||
| 07 | 16:53 | W 8 G 20 | 10.00 | Fair | CLR | 93 | 21 | 95 | 86 | 7% | 88 | 29.78 | 1006.2 | ||||
| 07 | 15:53 | S 10 G 20 | 10.00 | Fair | CLR | 93 | 21 | 7% | 88 | 29.79 | 1006.5 | ||||||
| 07 | 14:53 | Vrbl 7 | 10.00 | Fair | CLR | 93 | 19 | 7% | 89 | 29.8 | 1007.0 | ||||||
| 07 | 13:53 | Vrbl 5 | 10.00 | Fair | CLR | 91.9 | 19 | 7% | 88 | 29.84 | 1008.1 | ||||||
| 07 | 12:53 | SW 8 | 10.00 | Fair | CLR | 91 | 19.9 | 7% | 87 | 29.86 | 1008.9 | ||||||
| 07 | 11:53 | SW 9 | 10.00 | Fair | CLR | 90 | 21.9 | 8% | 86 | 29.89 | 1010.0 | ||||||
| 07 | 10:53 | Calm | 10.00 | Fair | CLR | 87.1 | 19.9 | 87.1 | 62.1 | 8% | 84 | 29.91 | 1010.7 | ||||
| 07 | 09:53 | W 5 | 10.00 | Fair | CLR | 84.9 | 19.9 | 9% | 82 | 29.93 | 1011.1 | ||||||
| 07 | 08:53 | W 3 | 10.00 | Fair | CLR | 81 | 23 | 12% | 79 | 29.94 | 1011.6 | ||||||
| 07 | 07:53 | Calm | 10.00 | Fair | CLR | 77 | 30.9 | 18% | 77 | 29.95 | 1012.0 | ||||||
| 07 | 06:53 | E 5 | 10.00 | Fair | CLR | 68 | 32 | 26% | 29.94 | 1011.9 | |||||||
| 07 | 05:53 | SE 3 | 10.00 | Fair | CLR | 64 | 30.9 | 29% | 29.93 | 1011.5 | |||||||
| 07 | 04:53 | NE 5 | 10.00 | Fair | CLR | 64 | 30.9 | 72 | 64 | 29% | 29.93 | 1011.4 | |||||
| 07 | 03:53 | Calm | 10.00 | Fair | CLR | 64.9 | 32 | 29% | 29.94 | 1011.8 | |||||||
| 07 | 02:53 | E 6 | 10.00 | Fair | CLR | 66 | 30.9 | 27% | 29.95 | 1012.2 | |||||||
| 07 | 01:53 | Calm | 10.00 | Fair | CLR | 64.9 | 30.9 | 28% | 29.95 | 1012.3 | |||||||
| 07 | 00:53 | NE 6 | 10.00 | Fair | CLR | 68 | 33.1 | 27% | 29.96 | 1012.5 | |||||||
| 06 | 23:53 | Calm | 10.00 | Fair | CLR | 68 | 30 | 24% | 29.96 | 1012.6 | |||||||
| 06 | 22:53 | Calm | 10.00 | Fair | CLR | 72 | 32 | 82.9 | 71.1 | 23% | 29.96 | 1012.4 | |||||
| 06 | 21:53 | Calm | 10.00 | Fair | CLR | 73 | 30.9 | 21% | 29.95 | 1012.3 | |||||||
| 06 | 20:53 | SW 3 | 9.00 | Fair | CLR | 75.9 | 32 | 20% | 76 | 29.93 | 1011.7 | ||||||
| 06 | 19:53 | SW 8 | 10.00 | Fair | CLR | 78.1 | 32 | 19% | 77 | 29.91 | 1010.9 | ||||||
| 06 | 18:53 | SW 8 | 10.00 | Fair | CLR | 80.1 | 32 | 17% | 78 | 29.89 | 1010.4 | ||||||
| 06 | 17:53 | SW 6 | 10.00 | Fair | CLR | 82 | 32 | 16% | 80 | 29.89 | 1010.4 | ||||||
| 06 | 16:53 | SW 8 G 17 | 10.00 | Fair | CLR | 82 | 33.1 | 82.9 | 73.9 | 17% | 80 | 29.89 | 1010.4 | ||||
| 06 | 15:53 | SW 7 | 10.00 | Fair | CLR | 82.9 | 33.1 | 17% | 80 | 29.9 | 1010.7 | ||||||
| 06 | 14:53 | Calm | 10.00 | Fair | CLR | 79 | 32 | 18% | 78 | 29.92 | 1011.5 | ||||||
| 06 | 13:53 | Calm | 10.00 | Fair | CLR | 80.1 | 32 | 17% | 78 | 29.95 | 1012.6 | ||||||
| 06 | 12:53 | Vrbl 5 | 10.00 | Fair | CLR | 77 | 32 | 19% | 77 | 29.97 | 1013.3 | ||||||
| 06 | 11:53 | W 9 | 10.00 | Fair | CLR | 77 | 32 | 19% | 77 | 29.99 | 1013.6 | ||||||
| 06 | 10:53 | W 10 | 10.00 | Fair | CLR | 75 | 35.1 | 75 | 54 | 23% | 76 | 30.01 | 1014.3 | ||||
| Date | Time (mst) | Wind (mph) | Vis. (mi.) | Weather | Sky Cond. | Air | Dwpt | Max. | Min. | Relative Humidity | Wind Chill (°F) | Heat Index (°F) | altimeter (in) | sea level (mb) | 1 hr | 3 hr | 6 hr |
| 6 hour | |||||||||||||||||
| Temperature (ºF) | Pressure | Precipitation (in) | |||||||||||||||